Weather at Athen Helenikon Airport [CLOSED]

Public forecast

Using degrees Celsius for public forecast. Weather courtesy of forecast.io.

Closest aviation weather report (METAR) to Athen Helenikon Airport

Closest report is Eleftherios Venizelos International Airport, 10.7 nm (19.7 km) ENE. Retrieved 2020/11/23 23:20 UTC (37 minutes ago):

LGAV 232320Z 28003KT 9999 FEW025 08/06 Q1023 NOSIG

Closest aviation forecast (TAF) to Athen Helenikon Airport

Closest forecast is Eleftherios Venizelos International Airport, 10.7 nm (19.7 km) ENE. Retrieved 2020/11/23 18:12 UTC (6 hours ago):

TAF TAF LGAV 231700Z 2318/2418 34010KT 9999 FEW020 BECMG 2407/2409 04015KT BECMG 2410/2412 03015G25KT